Time;durP1;ratioP1;P1;durP2;ratioP2;P2;SDS_P1;SDS_P2;PMS_P1;PMS_P2;Temp;Humidity;BMP_temperature;BMP_pressure;BME280_temperature;BME280_humidity;BME280_pressure;Samples;Min_cycle;Max_cycle;Signal;HPM_P1;HPM_P2
2024/02/21 00:00:34;;;;;;;8.07;4.30;;;7.20;78.10;;;6.58;76.68;98852.31;5046907;28;20445;-75
2024/02/21 00:03:02;;;;;;;9.43;4.40;;;7.30;78.10;;;6.56;76.69;98827.50;5047782;28;20443;-73
2024/02/21 00:05:29;;;;;;;9.00;4.67;;;7.30;78.20;;;6.63;76.20;98823.13;5046661;28;20465;-78
2024/02/21 00:07:59;;;;;;;7.57;4.80;;;7.30;78.10;;;6.68;76.31;98846.78;5048269;28;20879;-75
2024/02/21 00:10:27;;;;;;;11.33;4.87;;;7.40;78.00;;;6.65;76.71;98837.22;5045925;28;20471;-77
2024/02/21 00:12:54;;;;;;;12.97;4.47;;;7.40;78.10;;;6.51;76.94;98834.22;5054841;28;20485;-75
2024/02/21 00:15:22;;;;;;;11.63;4.90;;;7.30;78.10;;;6.51;77.33;98831.53;5046847;28;20487;-76
2024/02/21 00:17:49;;;;;;;9.57;4.47;;;7.30;78.40;;;6.62;76.79;98829.50;5048856;28;21028;-77
2024/02/21 00:20:17;;;;;;;13.33;5.07;;;7.30;78.30;;;6.64;76.81;98827.50;5042847;28;20855;-73
2024/02/21 00:22:45;;;;;;;10.37;4.87;;;7.40;78.20;;;6.07;77.25;98751.38;5041099;28;20499;-75
2024/02/21 00:25:13;;;;;;;13.20;4.90;;;7.30;78.40;;;6.50;77.67;98818.25;5042486;28;20439;-75
2024/02/21 00:27:40;;;;;;;16.17;5.17;;;7.30;78.50;;;6.47;77.60;98816.78;5048991;28;21168;-76
2024/02/21 00:30:09;;;;;;;12.30;5.40;;;7.30;78.50;;;6.51;77.32;98820.78;5045607;28;20996;-76
2024/02/21 00:32:37;;;;;;;10.70;5.20;;;7.30;78.50;;;6.62;77.46;98805.34;5044632;28;20547;-77
2024/02/21 00:35:04;;;;;;;12.70;5.57;;;7.30;78.60;;;6.61;77.37;98801.81;5048411;28;21085;-77
2024/02/21 00:37:32;;;;;;;9.80;4.83;;;7.30;78.70;;;6.74;77.44;98806.63;5047179;28;20455;-76
2024/02/21 00:39:59;;;;;;;11.57;5.90;;;7.40;78.90;;;6.63;77.16;98801.66;5060721;28;20825;-75
2024/02/21 00:42:28;;;;;;;9.30;4.50;;;7.40;78.70;;;6.53;78.03;98807.22;5047775;28;20451;-75
2024/02/21 00:44:55;;;;;;;11.17;4.47;;;7.30;78.80;;;6.52;77.77;98792.94;5069342;28;20869;-74
2024/02/21 00:47:22;;;;;;;11.40;5.00;;;7.40;78.70;;;6.60;77.29;98792.06;5049711;28;20859;-75
2024/02/21 00:49:49;;;;;;;9.37;4.83;;;7.40;78.70;;;6.68;77.24;98788.53;5047154;28;20465;-74
2024/02/21 00:52:17;;;;;;;13.13;5.53;;;7.40;78.70;;;6.67;77.60;98792.25;5044167;28;20457;-77
2024/02/21 00:54:44;;;;;;;11.03;5.47;;;7.40;79.00;;;6.66;77.31;98782.50;5042533;28;20455;-74
2024/02/21 00:57:11;;;;;;;12.53;6.17;;;7.40;79.00;;;6.60;76.70;98781.34;5049563;28;20454;-75
2024/02/21 00:59:41;;;;;;;11.23;5.50;;;7.30;78.80;;;6.50;78.23;98772.63;5046622;28;20527;-73
2024/02/21 01:02:08;;;;;;;15.17;6.43;;;7.20;78.90;;;6.45;78.62;98778.53;5049746;28;20451;-75
2024/02/21 01:04:36;;;;;;;10.83;5.13;;;7.20;79.00;;;6.45;78.07;98778.53;5047321;28;20439;-73
2024/02/21 01:07:03;;;;;;;11.13;5.57;;;7.20;79.10;;;6.36;78.80;98791.09;5054321;28;20467;-73
2024/02/21 01:09:31;;;;;;;10.63;5.13;;;7.10;79.20;;;6.36;78.74;98779.53;5044363;28;20462;-74
2024/02/21 01:11:58;;;;;;;8.30;5.13;;;7.10;79.30;;;6.36;78.71;98768.78;5047647;28;21439;-74
2024/02/21 01:14:25;;;;;;;10.47;4.97;;;7.10;79.50;;;6.30;79.00;98758.75;5042266;28;20470;-75
2024/02/21 01:16:54;;;;;;;9.93;5.43;;;7.10;79.50;;;6.22;79.47;98762.28;5044427;28;20519;-73
2024/02/21 01:19:21;;;;;;;11.60;4.97;;;7.10;79.50;;;6.30;79.24;98758.75;5036238;28;20447;-76
2024/02/21 01:21:48;;;;;;;9.10;5.93;;;7.00;79.70;;;6.12;79.11;98729.41;5046619;28;20463;-75
2024/02/21 01:24:15;;;;;;;8.77;5.30;;;7.10;79.70;;;6.31;79.13;98747.00;5045949;28;20926;-74
2024/02/21 01:26:43;;;;;;;12.43;5.00;;;7.10;79.70;;;6.25;79.58;98743.16;5045576;28;20449;-73
2024/02/21 01:29:10;;;;;;;8.30;5.40;;;7.10;79.80;;;6.15;79.73;98732.59;5060811;28;20786;-75
2024/02/21 01:31:38;;;;;;;11.57;4.70;;;7.10;79.90;;;6.23;79.95;98743.31;5044553;28;20564;-74
2024/02/21 01:34:06;;;;;;;8.30;5.00;;;7.00;79.80;;;6.37;79.63;98743.63;5045550;28;20458;-74
2024/02/21 01:36:35;;;;;;;13.33;4.93;;;7.00;79.90;;;6.30;79.45;98742.66;5043143;28;21016;-76
2024/02/21 01:39:02;;;;;;;10.80;4.90;;;7.00;79.90;;;6.33;79.79;98745.00;5066461;28;21061;-77
2024/02/21 01:41:31;;;;;;;13.63;4.93;;;7.00;80.00;;;6.36;79.36;98747.31;5045458;28;21024;-77
2024/02/21 01:43:59;;;;;;;12.80;4.57;;;7.00;80.10;;;6.29;79.27;98731.06;5046082;28;20457;-74
2024/02/21 01:46:28;;;;;;;9.20;5.13;;;7.00;80.10;;;6.32;79.46;98728.03;5072863;28;20441;-76
2024/02/21 01:48:56;;;;;;;13.50;5.23;;;7.00;80.10;;;6.33;79.70;98737.75;5069726;28;20466;-76
2024/02/21 01:51:26;;;;;;;7.17;4.50;;;7.10;80.10;;;6.26;79.59;98730.56;5047152;28;20504;-76
2024/02/21 01:53:56;;;;;;;13.27;5.20;;;7.00;80.10;;;6.30;79.91;98731.91;5041658;28;20467;-75
2024/02/21 01:56:23;;;;;;;10.03;4.93;;;7.00;80.20;;;6.16;80.59;98725.38;5043566;28;20472;-75
2024/02/21 01:58:52;;;;;;;8.13;4.50;;;6.90;80.40;;;6.20;80.40;98715.97;5045801;28;20448;-75
2024/02/21 02:01:19;;;;;;;11.10;4.83;;;7.00;80.50;;;6.27;80.21;98721.50;5059168;28;20453;-75
2024/02/21 02:03:47;;;;;;;13.77;5.30;;;7.00;80.60;;;6.23;80.10;98716.47;5070932;28;20452;-74
2024/02/21 02:06:14;;;;;;;8.97;4.90;;;7.00;80.60;;;6.21;80.77;98721.19;5049687;28;20454;-75
2024/02/21 02:08:43;;;;;;;11.73;5.40;;;6.90;80.60;;;6.12;80.89;98703.41;5049616;28;21100;-72
2024/02/21 02:11:11;;;;;;;11.73;5.40;;;6.90;80.70;;;6.22;80.97;98714.81;5075006;28;20713;-76
2024/02/21 02:13:39;;;;;;;9.10;4.80;;;7.00;80.80;;;6.27;80.67;98716.13;5046613;28;20472;-75
2024/02/21 02:16:07;;;;;;;14.57;5.83;;;7.00;80.90;;;6.33;80.60;98720.84;5049050;28;20477;-75
2024/02/21 02:18:34;;;;;;;12.53;5.87;;;7.00;80.80;;;6.20;80.93;98716.81;5040060;28;20451;-74
2024/02/21 02:21:01;;;;;;;12.87;5.37;;;7.00;80.90;;;6.23;81.06;98705.75;5044100;28;20457;-73
2024/02/21 02:23:32;;;;;;;11.47;4.60;;;7.00;80.80;;;6.30;80.59;98707.75;5059100;28;20451;-74
2024/02/21 02:26:00;;;;;;;11.67;5.03;;;7.00;80.80;;;6.21;80.76;98702.41;5057161;28;20531;-73
2024/02/21 02:28:28;;;;;;;7.43;4.73;;;7.00;80.90;;;6.24;81.03;98702.03;5067935;28;20820;-74
2024/02/21 02:30:55;;;;;;;10.13;5.43;;;7.00;81.00;;;6.24;80.89;98704.72;5046511;28;20442;-75
2024/02/21 02:33:22;;;;;;;11.27;4.60;;;7.00;81.00;;;6.24;81.04;98698.53;5044390;28;20545;-73
2024/02/21 02:35:49;;;;;;;10.20;5.23;;;7.00;81.00;;;6.23;80.89;98689.63;5040147;28;20543;-74
2024/02/21 02:38:17;;;;;;;12.63;5.50;;;7.10;81.10;;;6.22;81.26;98682.59;5039239;28;20511;-75
2024/02/21 02:40:45;;;;;;;7.23;5.40;;;7.00;81.20;;;6.36;80.86;98675.69;5047231;28;20454;-75
2024/02/21 02:43:13;;;;;;;8.20;4.90;;;7.00;81.30;;;6.18;81.16;98662.50;5044608;28;20447;-74
2024/02/21 02:45:40;;;;;;;12.37;5.90;;;7.00;81.30;;;6.30;80.49;98671.00;5045842;28;20454;-76
2024/02/21 02:48:08;;;;;;;10.20;4.93;;;7.10;81.30;;;5.95;82.51;98662.34;5043577;28;20461;-74
2024/02/21 02:50:35;;;;;;;13.63;4.90;;;7.00;81.30;;;6.13;82.12;98656.78;5046265;28;20454;-75
2024/02/21 02:53:03;;;;;;;12.07;5.60;;;7.00;81.40;;;5.91;83.46;98653.78;5044753;28;20458;-74
2024/02/21 02:55:30;;;;;;;7.53;4.20;;;6.90;81.60;;;5.84;83.96;98660.84;5047695;28;20512;-73
2024/02/21 02:57:59;;;;;;;14.27;4.83;;;6.90;81.60;;;5.95;83.27;98660.47;5048316;28;21222;-75
2024/02/21 03:00:27;;;;;;;13.23;5.00;;;6.90;81.80;;;5.92;83.72;98657.31;5048623;28;20477;-75
2024/02/21 03:02:54;;;;;;;12.80;5.20;;;6.90;81.80;;;5.81;83.99;98653.13;5049504;28;20533;-75
2024/02/21 03:05:22;;;;;;;12.97;5.63;;;6.90;81.90;;;5.78;84.30;98658.81;5049136;28;20465;-76
2024/02/21 03:07:50;;;;;;;10.13;5.20;;;6.90;82.00;;;5.86;84.40;98661.50;5046620;28;21091;-75
2024/02/21 03:10:17;;;;;;;13.53;4.90;;;6.90;82.10;;;5.86;84.09;98653.47;5050519;28;20460;-75
2024/02/21 03:12:44;;;;;;;9.70;4.57;;;6.90;82.10;;;5.91;84.48;98648.41;5049510;28;20540;-73
2024/02/21 03:15:14;;;;;;;13.27;4.33;;;6.90;82.10;;;5.86;84.50;98639.19;5069307;28;20459;-74
2024/02/21 03:17:42;;;;;;;7.80;4.40;;;7.00;82.20;;;5.94;84.17;98664.16;5041853;28;20506;-76
2024/02/21 03:20:14;;;;;;;10.60;4.47;;;7.00;82.20;;;6.01;83.33;98658.13;5044252;28;20485;-77
2024/02/21 03:22:42;;;;;;;8.47;4.77;;;7.00;82.00;;;6.08;83.12;98645.72;5047871;28;20535;-78
2024/02/21 03:25:10;;;;;;;7.70;4.30;;;7.10;82.20;;;6.10;83.28;98643.72;5049326;28;20458;-76
2024/02/21 03:27:37;;;;;;;10.07;4.50;;;7.10;82.20;;;6.21;83.13;98638.00;5047395;28;20500;-76
2024/02/21 03:30:06;;;;;;;9.17;4.23;;;7.10;82.00;;;6.12;83.20;98633.63;5050027;28;20450;-75
2024/02/21 03:32:35;;;;;;;9.43;4.77;;;7.10;82.00;;;6.06;83.20;98634.34;5049661;28;20455;-75
2024/02/21 03:35:02;;;;;;;10.07;5.03;;;7.10;81.90;;;6.01;83.30;98634.00;5074771;28;20460;-75
2024/02/21 03:37:29;;;;;;;12.50;4.80;;;7.10;81.90;;;6.02;83.69;98641.06;5047479;28;20497;-77
2024/02/21 03:39:56;;;;;;;8.60;4.90;;;7.10;82.10;;;6.05;83.83;98635.34;5042965;28;20445;-77
2024/02/21 03:42:25;;;;;;;11.40;5.43;;;7.10;82.00;;;6.05;83.62;98640.72;5049702;28;20470;-76
2024/02/21 03:44:52;;;;;;;7.83;4.57;;;7.10;82.20;;;6.08;83.72;98643.06;5044105;28;20457;-76
2024/02/21 03:47:19;;;;;;;7.50;4.70;;;7.10;82.10;;;6.10;83.68;98632.97;5048244;28;20454;-73
2024/02/21 03:49:47;;;;;;;12.37;4.53;;;7.10;82.10;;;6.06;84.21;98628.97;5048437;28;20999;-75
2024/02/21 03:52:14;;;;;;;11.20;5.03;;;7.10;82.20;;;6.07;83.89;98625.28;5047809;28;20783;-76
2024/02/21 03:54:44;;;;;;;14.23;5.47;;;7.10;82.20;;;5.93;84.61;98627.63;5048733;28;20455;-76
2024/02/21 03:57:11;;;;;;;11.47;4.67;;;7.10;82.20;;;6.02;84.32;98622.28;5048516;28;20490;-73
2024/02/21 03:59:39;;;;;;;9.83;4.70;;;7.10;82.20;;;6.06;83.41;98623.59;5046190;28;20465;-76
2024/02/21 04:02:08;;;;;;;10.77;4.93;;;7.10;82.20;;;6.00;83.82;98624.28;5042749;28;20497;-77
2024/02/21 04:04:37;;;;;;;10.73;5.00;;;7.10;82.20;;;6.09;83.31;98607.16;5044218;28;20458;-76
2024/02/21 04:07:07;;;;;;;10.40;4.57;;;7.10;82.30;;;6.15;83.38;98611.84;5062917;28;20811;-75
2024/02/21 04:09:34;;;;;;;12.00;5.10;;;7.10;82.30;;;6.01;83.91;98601.81;5047249;28;20456;-75
2024/02/21 04:12:02;;;;;;;8.77;4.57;;;7.10;82.20;;;6.13;83.32;98605.81;5048698;28;20457;-74
2024/02/21 04:14:29;;;;;;;12.03;4.60;;;7.10;82.00;;;6.26;83.12;98607.09;5046375;28;20453;-73
2024/02/21 04:16:56;;;;;;;8.90;4.90;;;7.20;82.00;;;6.32;82.39;98614.47;5043790;28;20478;-75
2024/02/21 04:19:23;;;;;;;9.50;4.40;;;7.30;82.00;;;6.28;82.63;98594.34;5047816;28;20466;-77
2024/02/21 04:21:51;;;;;;;6.30;4.23;;;7.20;82.00;;;6.41;83.24;98600.00;5048993;28;20762;-74
2024/02/21 04:24:20;;;;;;;8.27;4.70;;;7.30;82.30;;;6.40;83.20;98592.97;5065067;28;20872;-74
2024/02/21 04:26:47;;;;;;;10.00;4.60;;;7.40;82.30;;;6.30;84.42;98595.03;5048104;28;20449;-74
2024/02/21 04:29:14;;;;;;;12.57;4.00;;;7.40;82.60;;;6.17;85.49;98609.84;5045170;28;20489;-74
2024/02/21 04:31:41;;;;;;;9.17;4.20;;;7.30;82.90;;;6.27;85.41;98616.84;5051496;28;20474;-75
2024/02/21 04:34:08;;;;;;;9.43;4.97;;;7.30;83.20;;;6.27;85.38;98609.63;5064721;28;20547;-75
2024/02/21 04:36:35;;;;;;;16.93;4.80;;;7.30;83.10;;;6.32;85.23;98601.06;5046673;28;20481;-75
2024/02/21 04:39:03;;;;;;;8.47;4.23;;;7.30;83.30;;;6.24;85.87;98585.84;5043161;28;20450;-74
2024/02/21 04:41:31;;;;;;;7.20;4.50;;;7.20;83.60;;;6.39;85.43;98591.28;5038574;28;20456;-74
2024/02/21 04:43:59;;;;;;;10.20;4.80;;;7.20;84.10;;;6.51;85.36;98597.94;5045984;28;20457;-74
2024/02/21 04:46:26;;;;;;;9.67;4.83;;;7.20;84.10;;;6.47;85.55;98587.72;5046392;28;20459;-76
2024/02/21 04:48:53;;;;;;;10.53;4.70;;;7.10;83.90;;;5.99;86.55;98520.63;5050866;28;20453;-75
2024/02/21 04:51:20;;;;;;;8.40;5.37;;;7.10;84.40;;;6.36;86.07;98581.72;5048602;28;20455;-76
2024/02/21 04:53:48;;;;;;;9.40;4.73;;;7.10;84.70;;;6.40;87.00;98584.91;5048528;28;20453;-76
2024/02/21 04:56:15;;;;;;;7.87;4.10;;;7.10;85.30;;;6.35;86.28;98584.59;5050727;28;20544;-74
2024/02/21 04:58:44;;;;;;;14.57;4.67;;;7.10;85.10;;;6.37;86.23;98571.84;5046897;28;20553;-75
2024/02/21 05:01:11;;;;;;;8.63;4.10;;;7.10;85.10;;;6.33;87.10;98571.34;5044934;28;20552;-74
2024/02/21 05:03:39;;;;;;;8.70;4.20;;;7.10;85.40;;;6.45;86.23;98579.88;5033180;28;20446;-74
2024/02/21 05:06:07;;;;;;;7.63;4.47;;;7.10;85.30;;;6.36;87.10;98571.00;5074118;28;20534;-75
2024/02/21 05:08:34;;;;;;;9.73;4.70;;;7.10;85.50;;;6.18;87.71;98568.56;5046379;28;20537;-75
2024/02/21 05:11:02;;;;;;;9.90;4.50;;;7.00;85.60;;;6.14;88.59;98553.00;5047561;28;20433;-75
2024/02/21 05:13:29;;;;;;;5.87;3.93;;;7.00;86.30;;;6.18;89.01;98554.31;5038055;28;20455;-74
2024/02/21 05:16:01;;;;;;;10.00;5.10;;;7.00;86.60;;;6.13;88.82;98538.72;5042279;28;20513;-76
2024/02/21 05:18:28;;;;;;;7.50;4.87;;;6.90;86.80;;;5.81;89.47;98482.34;5045270;28;20973;-75
2024/02/21 05:20:55;;;;;;;10.00;5.03;;;6.90;87.10;;;6.13;88.89;98538.72;5047488;28;20459;-75
2024/02/21 05:23:22;;;;;;;12.73;4.87;;;6.80;87.20;;;6.11;88.87;98524.66;5063203;28;20507;-73
2024/02/21 05:25:49;;;;;;;12.93;5.17;;;6.90;87.60;;;6.33;89.82;98539.16;5046382;28;20449;-74
2024/02/21 05:28:17;;;;;;;9.77;5.10;;;6.90;88.00;;;6.08;89.12;98546.47;5045446;28;20794;-75
2024/02/21 05:30:44;;;;;;;14.43;5.77;;;6.90;87.60;;;6.09;91.01;98542.78;5048969;28;20452;-76
2024/02/21 05:33:20;;;;;;;10.90;5.40;;;6.80;88.40;;;6.06;89.24;98537.75;5046235;28;20461;-75
2024/02/21 05:35:48;;;;;;;12.83;4.73;;;6.80;87.80;;;6.04;90.27;98542.47;5039974;28;20584;-73
2024/02/21 05:38:15;;;;;;;9.63;5.23;;;6.80;89.00;;;5.93;89.57;98536.44;5035586;28;21080;-74
2024/02/21 05:40:43;;;;;;;6.90;4.57;;;6.70;87.90;;;5.94;90.04;98551.50;5041841;28;20461;-75
2024/02/21 05:43:10;;;;;;;8.13;4.87;;;6.70;88.10;;;5.91;89.83;98551.88;5046969;28;20508;-75
2024/02/21 05:45:38;;;;;;;10.97;5.10;;;6.70;88.30;;;5.92;90.67;98542.81;5054967;28;20451;-75
2024/02/21 05:48:06;;;;;;;10.70;5.40;;;6.60;89.00;;;5.87;90.11;98539.81;5041380;28;20771;-74
2024/02/21 05:50:35;;;;;;;10.13;4.80;;;6.60;88.50;;;5.85;90.01;98540.97;5043707;28;20452;-75
2024/02/21 05:53:03;;;;;;;13.37;5.23;;;6.60;88.60;;;5.88;90.60;98551.38;5046316;28;20845;-74
2024/02/21 05:55:30;;;;;;;14.10;5.60;;;6.60;89.30;;;5.83;90.41;98530.41;5041988;28;20454;-74
2024/02/21 05:57:57;;;;;;;13.57;5.80;;;6.60;88.90;;;5.92;90.39;98528.56;5043835;28;20473;-74
2024/02/21 06:00:25;;;;;;;10.73;4.93;;;6.60;89.40;;;5.84;89.97;98523.22;5046992;28;20458;-74
2024/02/21 06:02:52;;;;;;;11.27;4.83;;;6.60;88.80;;;5.75;90.40;98504.47;5043821;28;20848;-75
2024/02/21 06:05:19;;;;;;;15.53;5.90;;;6.60;89.30;;;5.64;91.85;98527.13;5042899;28;20481;-74
2024/02/21 06:07:49;;;;;;;11.87;5.03;;;6.60;89.00;;;5.58;91.44;98525.13;5044463;28;20509;-73
2024/02/21 06:10:16;;;;;;;8.90;4.90;;;6.60;89.20;;;5.51;92.05;98526.81;5044953;28;20533;-73
2024/02/21 06:12:44;;;;;;;8.80;5.90;;;6.50;89.10;;;5.57;91.48;98523.47;5044962;28;20779;-74
2024/02/21 06:15:12;;;;;;;12.10;6.37;;;6.50;89.40;;;5.39;92.98;98537.06;5072597;28;20446;-77
2024/02/21 06:17:39;;;;;;;11.07;5.80;;;6.40;89.80;;;5.28;93.65;98535.56;5057654;28;20497;-78
2024/02/21 06:20:09;;;;;;;10.40;5.93;;;6.20;90.00;;;5.16;94.82;98529.72;5042964;28;20811;-74
2024/02/21 06:22:36;;;;;;;16.27;6.27;;;6.10;90.50;;;5.20;95.10;98528.38;5042525;28;20597;-77
2024/02/21 06:25:05;;;;;;;15.40;6.70;;;6.10;91.10;;;5.05;95.40;98509.44;5044213;28;20450;-75
2024/02/21 06:27:33;;;;;;;12.63;6.03;;;6.10;91.30;;;5.02;95.78;98531.19;5043973;28;20670;-74
2024/02/21 06:30:00;;;;;;;13.90;5.83;;;6.00;91.10;;;5.08;96.16;98535.06;5044418;28;20451;-79
2024/02/21 06:32:27;;;;;;;10.17;5.83;;;6.00;91.70;;;5.12;95.61;98527.53;5046960;28;20469;-77
2024/02/21 06:34:54;;;;;;;14.13;6.03;;;5.90;91.70;;;5.02;96.32;98536.56;5040690;28;20450;-81
2024/02/21 06:37:22;;;;;;;15.67;6.07;;;6.00;92.00;;;4.99;96.15;98536.91;5063600;28;20478;-77
2024/02/21 06:39:49;;;;;;;11.63;6.20;;;6.00;91.80;;;5.01;96.53;98534.88;5042198;28;21187;-71
2024/02/21 06:42:18;;;;;;;14.57;6.50;;;6.00;91.90;;;5.08;95.58;98549.31;5042906;28;20992;-70
2024/02/21 06:44:46;;;;;;;10.57;5.93;;;6.00;91.90;;;5.12;95.85;98548.97;5036744;28;20541;-72
2024/02/21 06:47:12;;;;;;;13.80;5.97;;;6.10;91.80;;;5.49;94.87;98563.66;5059671;28;20467;-72
2024/02/21 06:49:39;;;;;;;12.90;5.90;;;6.20;91.80;;;5.64;92.56;98556.59;5041673;28;21168;-73
2024/02/21 06:52:07;;;;;;;10.57;5.43;;;6.30;91.20;;;5.72;92.71;98558.44;5043512;28;20872;-72
2024/02/21 06:54:34;;;;;;;8.30;5.70;;;6.40;91.00;;;5.88;91.44;98560.25;5044210;28;20640;-71
2024/02/21 06:57:01;;;;;;;7.23;5.07;;;6.50;90.90;;;5.95;90.65;98544.31;5042541;28;20523;-71
2024/02/21 06:59:30;;;;;;;10.50;5.47;;;6.60;90.50;;;6.12;90.19;98541.59;5043067;28;20472;-71
2024/02/21 07:01:57;;;;;;;11.73;5.70;;;6.80;90.20;;;6.22;89.59;98548.44;5042374;28;20453;-71
2024/02/21 07:04:24;;;;;;;11.80;5.73;;;7.00;90.20;;;6.23;88.49;98539.38;5043572;28;20813;-72
2024/02/21 07:06:51;;;;;;;13.23;6.07;;;7.00;88.70;;;6.20;88.35;98534.34;5041200;28;20495;-69
2024/02/21 07:09:19;;;;;;;9.80;5.70;;;7.00;88.30;;;6.12;88.11;98534.38;5051835;28;20488;-72
2024/02/21 07:11:46;;;;;;;11.33;6.47;;;6.90;88.10;;;6.06;89.09;98524.34;5040211;28;20964;-76
2024/02/21 07:14:15;;;;;;;8.03;5.30;;;6.80;88.00;;;6.23;89.83;98519.75;5042451;28;21299;-68
2024/02/21 07:16:44;;;;;;;8.50;4.87;;;6.90;88.90;;;6.52;87.53;98521.78;5034469;28;20463;-69
2024/02/21 07:19:11;;;;;;;12.37;5.50;;;7.20;88.90;;;6.72;85.31;98525.84;5036475;28;20474;-69
2024/02/21 07:21:41;;;;;;;10.67;4.30;;;7.30;87.30;;;6.95;85.19;98525.84;5045940;28;20964;-69
2024/02/21 07:24:11;;;;;;;11.53;5.30;;;7.50;87.30;;;6.82;83.13;98523.75;5043334;28;21147;-70
2024/02/21 07:26:38;;;;;;;8.40;5.40;;;7.60;85.40;;;6.55;84.42;98530.47;5043572;28;20883;-70
2024/02/21 07:29:05;;;;;;;9.20;5.67;;;7.40;85.10;;;6.55;84.21;98525.09;5036867;28;20465;-76
2024/02/21 07:31:32;;;;;;;7.90;4.60;;;7.30;85.30;;;6.70;83.88;98526.03;5071372;28;20443;-72
2024/02/21 07:34:01;;;;;;;9.47;4.73;;;7.30;85.30;;;6.66;83.76;98528.22;5056059;28;20445;-73
2024/02/21 07:36:31;;;;;;;8.73;5.00;;;7.40;85.10;;;6.57;84.49;98526.63;5050040;28;20447;-76
2024/02/21 07:38:58;;;;;;;13.53;5.77;;;7.30;85.40;;;6.88;84.39;98519.50;5052124;28;21057;-74
2024/02/21 07:41:28;;;;;;;9.20;5.67;;;7.40;85.70;;;6.91;83.40;98514.63;5076431;28;20540;-75
2024/02/21 07:43:55;;;;;;;11.87;4.57;;;7.50;85.40;;;6.97;82.58;98515.75;5047400;28;20470;-75
2024/02/21 07:46:22;;;;;;;8.87;4.83;;;7.60;85.20;;;7.03;81.47;98519.59;5040886;28;20516;-76
2024/02/21 07:48:52;;;;;;;13.63;5.40;;;7.70;84.60;;;6.88;80.99;98504.25;5051347;28;20516;-75
2024/02/21 07:51:20;;;;;;;10.07;4.83;;;7.70;83.70;;;6.88;80.69;98514.13;5050508;28;20465;-75
2024/02/21 07:53:48;;;;;;;9.00;5.17;;;7.70;83.30;;;7.06;80.99;98517.38;5052139;28;20470;-76
2024/02/21 07:56:16;;;;;;;13.30;4.93;;;7.80;83.80;;;7.15;80.91;98503.84;5040744;28;20454;-76
2024/02/21 07:58:43;;;;;;;10.70;3.87;;;7.80;83.50;;;6.89;78.50;98454.03;5041401;28;20832;-74
2024/02/21 08:01:12;;;;;;;10.50;5.03;;;7.90;82.50;;;7.17;79.38;98493.75;5052255;28;20460;-72
2024/02/21 08:03:39;;;;;;;10.60;4.87;;;7.90;82.60;;;7.21;80.46;98513.91;5048650;28;20495;-75
2024/02/21 08:06:06;;;;;;;10.53;5.33;;;8.00;83.00;;;7.21;79.21;98509.34;5043222;28;20513;-75
2024/02/21 08:08:35;;;;;;;11.57;4.10;;;7.90;82.60;;;7.36;77.16;98501.31;5044423;28;21278;-74
2024/02/21 08:11:02;;;;;;;9.10;4.40;;;8.00;82.00;;;7.31;76.92;98492.97;5048492;28;20455;-75
2024/02/21 08:13:29;;;;;;;5.73;3.57;;;8.00;81.40;;;7.21;76.39;98481.66;5045123;28;20459;-74
2024/02/21 08:15:57;;;;;;;12.10;4.10;;;8.00;81.00;;;7.06;76.28;98433.22;5042182;28;20498;-77
2024/02/21 08:18:24;;;;;;;7.60;3.80;;;8.00;81.20;;;7.30;76.70;98483.22;5044464;28;20473;-76
2024/02/21 08:20:51;;;;;;;6.97;4.63;;;8.00;80.90;;;7.50;75.49;98478.16;5038574;28;20438;-76
2024/02/21 08:23:20;;;;;;;10.67;4.57;;;8.10;80.80;;;7.72;75.05;98466.66;5042767;28;21280;-76
2024/02/21 08:25:48;;;;;;;7.23;4.57;;;8.30;80.90;;;7.76;75.25;98457.19;5045157;28;20457;-75
2024/02/21 08:28:16;;;;;;;8.87;4.50;;;8.30;81.00;;;7.93;74.92;98457.84;5045051;28;20447;-75
2024/02/21 08:30:47;;;;;;;11.47;4.97;;;8.50;80.70;;;7.70;74.26;98425.69;5047349;28;20517;-74
2024/02/21 08:33:16;;;;;;;12.30;4.73;;;8.60;80.30;;;7.97;74.32;98469.06;5060182;28;20519;-71
2024/02/21 08:35:43;;;;;;;5.10;3.57;;;8.70;80.10;;;8.46;71.72;98468.41;5046862;28;20820;-76
2024/02/21 08:38:11;;;;;;;12.03;4.40;;;8.90;79.70;;;8.26;72.46;98467.31;5046222;28;20474;-68
2024/02/21 08:40:40;;;;;;;6.13;3.47;;;9.00;79.00;;;7.90;72.47;98469.81;5045367;28;20454;-70
2024/02/21 08:43:08;;;;;;;9.50;4.20;;;8.80;78.50;;;8.28;71.59;98476.06;5040962;28;20468;-71
2024/02/21 08:45:37;;;;;;;7.20;3.43;;;8.90;78.90;;;8.54;70.32;98462.09;5048949;28;20465;-70
2024/02/21 08:48:06;;;;;;;6.53;3.97;;;9.00;78.10;;;8.74;69.69;98456.91;5036905;28;20452;-70
2024/02/21 08:50:33;;;;;;;8.13;4.00;;;9.20;77.90;;;8.52;69.49;98465.97;5061887;28;20472;-71
2024/02/21 08:53:02;;;;;;;8.70;3.80;;;9.20;77.70;;;8.32;70.03;98450.44;5045185;28;20454;-70
2024/02/21 08:55:29;;;;;;;6.03;3.40;;;9.00;77.30;;;7.83;70.58;98450.06;5044476;28;20462;-70
2024/02/21 08:57:57;;;;;;;5.87;3.23;;;8.80;76.90;;;7.93;71.78;98445.19;5022797;28;20467;-71
2024/02/21 09:00:27;;;;;;;7.33;3.83;;;8.70;77.60;;;8.25;70.51;98454.88;5047349;28;20534;-75
2024/02/21 09:02:55;;;;;;;10.80;4.07;;;8.80;77.70;;;8.31;70.43;98454.16;5074849;28;20529;-70
2024/02/21 09:05:24;;;;;;;8.97;3.73;;;9.00;77.60;;;8.20;70.20;98453.59;5044056;28;20481;-70
2024/02/21 09:07:52;;;;;;;8.97;3.43;;;9.00;77.20;;;8.50;68.98;98458.13;5049604;28;20442;-71
2024/02/21 09:10:19;;;;;;;7.30;3.20;;;9.10;76.90;;;8.34;69.35;98451.91;5044525;28;20874;-72
2024/02/21 09:12:47;;;;;;;9.93;3.93;;;9.10;76.70;;;8.38;69.30;98452.34;5041294;28;20516;-71
2024/02/21 09:15:16;;;;;;;9.03;3.80;;;9.00;76.40;;;8.55;68.96;98449.44;5060455;28;20455;-71
2024/02/21 09:17:47;;;;;;;7.53;3.40;;;9.10;76.60;;;8.72;68.00;98444.63;5045973;28;20518;-70
2024/02/21 09:20:16;;;;;;;8.40;3.60;;;9.30;76.40;;;9.02;67.47;98448.03;5043416;28;20883;-69
2024/02/21 09:22:43;;;;;;;7.83;3.30;;;9.40;76.10;;;8.72;67.66;98434.72;5043619;28;21163;-71
2024/02/21 09:25:11;;;;;;;8.57;4.00;;;9.30;75.80;;;8.52;68.26;98441.75;5046310;28;20458;-72
2024/02/21 09:27:39;;;;;;;8.17;3.43;;;9.30;76.00;;;9.09;66.47;98433.75;5043444;28;20536;-70
2024/02/21 09:30:09;;;;;;;13.10;3.83;;;9.50;75.40;;;9.15;66.40;98432.97;5046424;28;20937;-72
2024/02/21 09:32:40;;;;;;;12.20;3.40;;;9.70;75.20;;;8.95;65.73;98433.66;5044482;28;20453;-71
2024/02/21 09:35:12;;;;;;;7.77;3.20;;;9.70;74.60;;;9.29;65.09;98428.50;5045103;28;20461;-71
2024/02/21 09:37:40;;;;;;;9.40;3.70;;;9.90;74.30;;;9.30;64.81;98431.00;5040770;28;20483;-70
2024/02/21 09:40:09;;;;;;;6.40;2.80;;;9.90;74.40;;;9.74;63.79;98428.13;5042235;28;20554;-70
2024/02/21 09:42:39;;;;;;;11.00;3.47;;;10.20;73.10;;;9.64;64.36;98432.06;5045318;28;20909;-69
2024/02/21 09:45:16;;;;;;;6.00;2.73;;;10.20;72.90;;;10.13;61.78;98444.72;5050922;28;20543;-72
2024/02/21 09:48:00;;;;;;;6.87;2.47;;;10.50;72.20;;;10.32;60.70;98435.84;5054439;28;20464;-72
2024/02/21 09:50:32;;;;;;;5.53;2.83;;;10.70;71.40;;;10.25;61.64;98429.59;5073098;28;20853;-70
2024/02/21 09:53:03;;;;;;;5.30;3.17;;;10.80;71.20;;;10.00;61.04;98421.19;5045089;28;21114;-70
2024/02/21 09:55:34;;;;;;;3.83;2.70;;;10.60;70.30;;;9.99;62.18;98411.44;5058479;28;20847;-71
2024/02/21 09:58:03;;;;;;;6.43;3.20;;;10.70;70.60;;;9.96;61.80;98415.38;5071276;28;20470;-69
2024/02/21 10:00:30;;;;;;;5.57;2.70;;;10.60;70.90;;;9.84;62.58;98414.28;5045185;28;20442;-71
2024/02/21 10:02:59;;;;;;;5.33;3.20;;;10.50;71.00;;;9.82;63.41;98402.84;5043166;28;20452;-70
2024/02/21 10:05:27;;;;;;;8.40;3.50;;;10.40;71.40;;;10.01;62.81;98398.56;5045145;28;20453;-72
2024/02/21 10:07:57;;;;;;;5.20;2.83;;;10.50;71.20;;;10.02;61.59;98392.13;5073235;28;20463;-72
2024/02/21 10:13:06;;;;;;;8.77;3.07;;;10.40;70.10;;;9.85;62.53;98387.09;5060425;28;20445;-70
2024/02/21 10:15:33;;;;;;;8.40;3.10;;;10.30;70.30;;;9.89;60.87;98380.25;5045058;28;20549;-71
2024/02/21 10:18:03;;;;;;;3.63;2.80;;;10.50;69.40;;;10.03;60.84;98381.16;5022832;28;20473;-69
2024/02/21 10:20:32;;;;;;;7.33;2.70;;;10.60;69.90;;;9.99;61.21;98373.66;5047450;28;20933;-71
2024/02/21 10:23:07;;;;;;;7.63;2.90;;;10.60;69.70;;;10.03;61.16;98381.16;5048960;28;20449;-69
2024/02/21 10:25:35;;;;;;;5.70;2.70;;;10.60;69.40;;;10.34;59.79;98374.38;5046357;28;20458;-72
2024/02/21 10:28:04;;;;;;;6.67;3.07;;;10.80;69.50;;;10.33;59.89;98358.34;5053232;28;20810;-71
2024/02/21 10:30:31;;;;;;;6.50;3.03;;;10.80;69.20;;;10.23;59.63;98366.00;5040221;28;20452;-71
2024/02/21 10:32:58;;;;;;;7.90;3.13;;;10.90;68.30;;;10.37;59.75;98362.28;5051406;28;20969;-70